• Join FlightAware (Why Join?)
  • Login
  • US Flag 
12:13PM EDT


 

Airport Tracker/Info


-or-


 

Live Flight TrackerFlight Track Log ✈ AAL556 ✈ 27-Apr-2012 ✈ KORD - KFLL

Flight Track Log - Related Links

Times and Time Zones

All times are in EDT time to prevent confusion due to time zone crossing. See the AAL556 flight status page for this flight to view local times or setup timezone preferences in your user account.

Time Position Orientation Groundspeed Altitude Reporting Facility
EDT Latitude Longitude Course Direction KTS MPH feet Rate Location/Type
08:55PM 41.9528 -87.8954 57° Northeast  Level FlightAware Approximate
08:56PM 41.9667 -87.8667 143° Southeast 171 197 2,400  Level Chicago TRACON
08:56PM 41.9167 -87.8167 160° South 221 254 3,700 1,560 Climbing Chicago TRACON
08:58PM 41.8500 -87.7833 175° South 264 304 5,600 2,220 Climbing Chicago TRACON
08:59PM 41.7225 -87.7697 174° South 280 322 10,200 2,520 Climbing Chicago Center
09:00PM 41.6369 -87.7581 171° South 291 335 12,700 2,100 Climbing Chicago Center
09:01PM 41.5408 -87.7381 172° South 326 375 14,500 2,160 Climbing Chicago Center
09:02PM 41.4383 -87.7186 169° South 353 406 17,100 2,400 Climbing Chicago Center
09:03PM 41.3317 -87.6908 171° South 375 432 19,400 2,220 Climbing Chicago Center
09:04PM 41.2125 -87.6661 171° South 391 450 21,600 2,100 Climbing Chicago Center
09:05PM 41.0953 -87.6417 169° South 410 472 23,600 1,860 Climbing Chicago Center
09:06PM 40.9761 -87.6117 171° South 423 487 25,400 1,740 Climbing Chicago Center
09:07PM 40.8547 -87.5875 171° South 441 507 27,100 1,620 Climbing Chicago Center
09:08PM 40.7314 -87.5606 171° South 446 513 28,700 1,500 Climbing Chicago Center
09:09PM 40.6036 -87.5342 171° South 451 519 30,100 1,440 Climbing Chicago Center
09:12PM 40.3031 -87.4711 170° South 462 532 33,600 1,560 Climbing Indianapolis Center
09:13PM 40.1789 -87.4425 172° South 462 532 35,400 1,680 Climbing Indianapolis Center
09:14PM 40.0589 -87.4194 164° South 456 525 37,000 780 Climbing Indianapolis Center
09:15PM 39.9394 -87.3750 152° Southeast 443 510 37,000  Level Indianapolis Center
09:16PM 39.8272 -87.2986 153° Southeast 448 516 37,000  Level Indianapolis Center
09:17PM 39.7147 -87.2225 152° Southeast 453 521 37,000  Level Indianapolis Center
09:18PM 39.6006 -87.1439 152° Southeast 462 532 37,000  Level Indianapolis Center
09:19PM 39.4903 -87.0681 154° Southeast 462 532 37,000  Level Indianapolis Center
09:20PM 39.3756 -86.9953 152° Southeast 462 532 37,000  Level Indianapolis Center
09:21PM 39.2631 -86.9175 154° Southeast 462 532 37,000  Level Indianapolis Center
09:22PM 39.1503 -86.8453 150° Southeast 462 532 37,000  Level Indianapolis Center
09:23PM 39.0564 -86.7767 152° Southeast 447 514 37,000  Level Indianapolis Center
09:24PM 38.9356 -86.6939 153° Southeast 447 514 37,000  Level Indianapolis Center
09:25PM 38.8228 -86.6197 151° Southeast 447 514 37,000  Level Indianapolis Center
09:26PM 38.7142 -86.5433 152° Southeast 447 514 37,000  Level Indianapolis Center
09:27PM 38.6056 -86.4697 154° Southeast 442 509 37,000  Level Indianapolis Center
09:28PM 38.4925 -86.3989 152° Southeast 448 516 37,000  Level Indianapolis Center
09:29PM 38.3817 -86.3231 153° Southeast 448 516 37,000  Level Indianapolis Center
09:30PM 38.2667 -86.2472 152° Southeast 453 521 37,000  Level Indianapolis Center
09:31PM 38.1556 -86.1717 154° Southeast 453 521 37,000  Level Indianapolis Center
09:32PM 38.0403 -86.1017 150° Southeast 453 521 37,000  Level Indianapolis Center
09:33PM 37.9439 -86.0325 152° Southeast 453 521 37,000  Level Indianapolis Center
09:34PM 37.8306 -85.9578 153° Southeast 453 521 37,000  Level Indianapolis Center
09:35PM 37.7175 -85.8858 154° Southeast 459 528 37,000  Level Indianapolis Center
09:36PM 37.6019 -85.8142 152° Southeast 459 528 37,000  Level Indianapolis Center
09:37PM 37.4908 -85.7400 153° Southeast 459 528 37,000  Level Indianapolis Center
09:38PM 37.3772 -85.6661 152° Southeast 459 528 37,000  Level Indianapolis Center
09:39PM 37.2578 -85.5872 154° Southeast 459 528 37,000  Level Indianapolis Center
09:40PM 37.1400 -85.5161 167° South 459 528 37,000  Level Indianapolis Center
09:41PM 37.0258 -85.4819 166° South 444 511 37,000  Level Indianapolis Center
09:42PM 36.8992 -85.4425 166° South 444 511 37,000  Level Indianapolis Center
09:43PM 36.7808 -85.4058 165° South 444 511 37,000  Level Indianapolis Center
09:44PM 36.5894 -85.3417 166° South 443 510 37,000  Level Atlanta Center
09:45PM 36.4689 -85.3036 166° South 443 510 37,000  Level Atlanta Center
09:46PM 36.3506 -85.2658 167° South 443 510 37,000  Level Atlanta Center
09:47PM 36.2297 -85.2306 166° South 443 510 37,000  Level Atlanta Center
09:48PM 36.1114 -85.1928 166° South 443 510 37,000  Level Atlanta Center
09:49PM 35.9906 -85.1550 166° South 449 517 37,000  Level Atlanta Center
09:50PM 35.8681 -85.1175 167° South 449 517 37,000  Level Atlanta Center
09:51PM 35.7328 -85.0775 165° South 454 522 37,000  Level Atlanta Center
09:52PM 35.6119 -85.0375 166° South 454 522 37,000  Level Atlanta Center
09:53PM 35.4933 -85.0003 164° South 454 522 37,000  Level Atlanta Center
09:54PM 35.3747 -84.9583 162° South 449 517 37,000  Level Atlanta Center
09:55PM 35.2542 -84.9111 162° South 449 517 37,000  Level Atlanta Center
09:56PM 35.1356 -84.8642 163° South 455 524 37,000  Level Atlanta Center
09:57PM 35.0147 -84.8197 162° South 455 524 37,000  Level Atlanta Center
09:58PM 34.8942 -84.7706 163° South 455 524 37,000  Level Atlanta Center
09:59PM 34.7692 -84.7239 164° South 455 524 37,000  Level Atlanta Center
10:00PM 34.6711 -84.6903 160° South 455 524 37,000  Level Atlanta Center
10:01PM 34.5400 -84.6339 163° South 455 524 37,000  Level Atlanta Center
10:02PM 34.4192 -84.5903 163° South 455 524 37,000  Level Atlanta Center
10:03PM 34.2983 -84.5442 163° South 455 524 37,000  Level Atlanta Center
10:04PM 34.1794 -84.5008 165° South 455 524 37,000  Level Atlanta Center
10:05PM 34.0378 -84.4550 161° South 462 532 37,000  Level Atlanta Center
10:06PM 33.9231 -84.4069 163° South 456 525 37,000  Level Atlanta Center
10:07PM 33.8022 -84.3614 163° South 455 524 37,000  Level Atlanta Center
10:08PM 33.6833 -84.3183 162° South 450 518 37,000  Level Atlanta Center
10:09PM 33.5706 -84.2756 163° South 460 529 37,000  Level Atlanta Center
10:10PM 33.4475 -84.2306 163° South 460 529 37,000  Level Atlanta Center
10:11PM 33.3286 -84.1881 163° South 455 524 37,000  Level Atlanta Center
10:12PM 33.2056 -84.1431 163° South 455 524 37,000  Level Atlanta Center
10:13PM 33.0825 -84.0983 163° South 455 524 37,000  Level Atlanta Center
10:14PM 32.9508 -84.0511 163° South 449 517 37,000  Level Atlanta Center
10:15PM 32.8319 -84.0067 164° South 449 517 37,000  Level Atlanta Center
10:16PM 32.7089 -83.9647 163° South 454 522 37,000  Level Atlanta Center
10:17PM 32.5878 -83.9206 163° South 454 522 37,000  Level Atlanta Center
10:18PM 32.4686 -83.8764 163° South 454 522 37,000  Level Atlanta Center
10:19PM 32.3497 -83.8322 163° South 454 522 37,000  Level Atlanta Center
10:22PM 32.0594 -83.7286 162° South 455 524 37,000  Level Jacksonville Center
10:23PM 31.9386 -83.6833 165° South 455 524 37,000  Level Jacksonville Center
10:24PM 31.8178 -83.6456 167° South 450 518 37,000 -60 Level Jacksonville Center
10:25PM 31.6947 -83.6128 164° South 450 518 36,900  Descending Jacksonville Center
10:26PM 31.5572 -83.5656 166° South 460 529 37,000  Climbing Jacksonville Center
10:27PM 31.4364 -83.5306 165° South 460 529 37,000  Level Jacksonville Center
10:28PM 31.3153 -83.4933 166° South 454 522 37,000  Level Jacksonville Center
10:29PM 31.1922 -83.4583 166° South 454 522 37,000  Level Jacksonville Center
10:30PM 31.0692 -83.4214 165° South 454 522 37,000  Level Jacksonville Center
10:31PM 30.9461 -83.3819 166° South 454 522 37,000  Level Jacksonville Center
10:32PM 30.8231 -83.3450 165° South 454 522 37,000  Level Jacksonville Center
10:33PM 30.7169 -83.3131 166° South 446 513 37,000  Level Jacksonville Center
10:34PM 30.5917 -83.2764 165° South 453 521 37,000  Level Jacksonville Center
10:35PM 30.4706 -83.2397 166° South 453 521 37,000  Level Jacksonville Center
10:36PM 30.3475 -83.2031 166° South 453 521 37,000  Level Jacksonville Center
10:37PM 30.2244 -83.1667 166° South 453 521 37,000 -60 Level Jacksonville Center
10:38PM 30.1014 -83.1303 167° South 453 521 36,900  Descending Jacksonville Center
10:39PM 29.9575 -83.0917 165° South 472 543 37,000  Climbing Jacksonville Center
10:40PM 29.8342 -83.0531 165° South 469 540 37,000  Level Jacksonville Center
10:41PM 29.7131 -83.0169 166° South 469 540 37,000  Level Jacksonville Center
10:42PM 29.5922 -82.9833 165° South 469 540 37,000  Level Jacksonville Center
10:43PM 29.4647 -82.9428 166° South 469 540 37,000  Level Jacksonville Center
10:44PM 29.3436 -82.9092 166° South 469 540 37,000  Level Jacksonville Center
10:45PM 29.2186 -82.8736 166° South 464 534 37,000  Level Jacksonville Center
10:46PM 29.0975 -82.8378 167° South 459 528 37,000 -60 Level Jacksonville Center
10:47PM 28.9764 -82.8047 166° South 454 522 36,900  Descending Jacksonville Center
10:48PM 28.8531 -82.7694 166° South 454 522 37,000  Climbing Jacksonville Center
10:51PM 28.5125 -82.6744 165° South 452 520 37,000  Level Miami Center
10:52PM 28.3886 -82.6372 164° South 452 520 37,000 -60 Level Miami Center
10:53PM 28.2631 -82.5956 166° South 458 527 36,900  Descending Miami Center
10:54PM 28.1372 -82.5608 166° South 469 540 37,000  Climbing Miami Center
10:55PM 28.0156 -82.5264 166° South 464 534 36,900 -60 Descending Miami Center
10:56PM 27.8897 -82.4897 161° South 458 527 36,900  Level Miami Center
10:57PM 27.7644 -82.4414 161° South 446 513 37,000  Climbing Miami Center
10:58PM 27.6597 -82.4011 160° South 441 507 37,000  Level Miami Center
10:59PM 27.5447 -82.3533 145° Southeast 441 507 37,000 -120 Level Miami Center
11:00PM 27.4353 -82.2661 144° Southeast 435 501 36,800 -600 Descending Miami Center
11:01PM 27.3361 -82.1844 144° Southeast 440 506 35,900 -900 Descending Miami Center
11:02PM 27.2469 -82.1103 143° Southeast 445 512 35,000 -900 Descending Miami Center
11:03PM 27.1497 -82.0267 138° Southeast 445 512 34,100 -1,200 Descending Miami Center
11:04PM 27.0469 -81.9217 140° Southeast 451 519 32,600 -2,580 Descending Miami Center
11:05PM 26.9500 -81.8289 137° Southeast 456 525 29,000 -3,240 Descending Miami Center
11:06PM 26.8592 -81.7344 136° Southeast 456 525 26,100 -3,000 Descending Miami Center
11:07PM 26.7806 -81.6497 137° Southeast 445 512 23,100 -2,700 Descending Miami Center
11:08PM 26.6958 -81.5625 138° Southeast 431 496 20,800 -2,400 Descending Miami Center
11:09PM 26.6069 -81.4731 138° Southeast 400 460 18,300 -2,400 Descending Miami Center
11:10PM 26.5278 -81.3933 139° Southeast 392 451 16,100 -2,220 Descending Miami Center
11:11PM 26.4589 -81.3258 137° Southeast 382 440 14,000 -1,680 Descending Miami Center
11:12PM 26.3881 -81.2514 138° Southeast 364 419 12,800 -1,200 Descending Miami Center
11:13PM 26.3233 -81.1864 138° Southeast 342 394 11,700 -1,140 Descending Miami Center
11:14PM 26.2603 -81.1239 142° Southeast 326 375 10,500 -1,200 Descending Miami Center
11:15PM 26.1992 -81.0706 137° Southeast 289 333 9,600 -1,260 Descending Miami Center
11:16PM 26.1444 -81.0133 128° Southeast 272 313 8,300 -900 Descending Miami Center
11:17PM 26.0983 -80.9469 94° East 270 311 7,900 -240 Descending Miami Center
11:18PM 26.0942 -80.8728 97° East 269 310 7,900 -240 Level Miami Center
11:19PM 26.0842 -80.7800 100° East 270 311 7,500 -900 Descending Miami Center
11:20PM 26.0717 -80.7031 90° East 271 312 6,200 -1,320 Descending Miami Center
11:21PM 26.0717 -80.6222 90° East 265 305 5,100 -960 Descending Miami Center
11:22PM 26.0714 -80.5528 86° East 206 237 4,300 -660 Descending Miami Center
11:23PM 26.0747 -80.5044 89° East 175 201 3,900 -240 Descending Miami Center
11:23PM 26.0758 -80.4489 88° East 174 200 3,900 -60 Level Miami Center
11:25PM 26.0772 -80.3981 88° East 171 197 3,800 -120 Descending Miami Center